Main page
METAR-TAF:

METAR-TAF

Airports :

Avignon, France

Avignon – Provence Airport

latitude: 43-54-26N, longitude: 004-54-07E, elevation: 38 m

Current weather observation

The report was made 39 minutes ago, at 15:00 UTC
Wind 13 kt from the North, varying between Northwest and North/Northeast
Temperature 15°C
Humidity 44%
Pressure 1023 hPa
Visibility 10 km or more
no clouds below 1500 m and no cumulonimbus

METAR: LFMV 231500Z AUTO 35013KT 320V020 CAVOK 15/03 Q1023 NOSIG

Time: 16:39 (15:39 UTC)

Forecast

The report was made 1 hour and 39 minutes ago, at 14:00 UTC
Forecast valid from 23 at 15 UTC to 24 at 15 UTC
Wind 15 kt from the North
Visibility 10 km or more
no clouds below 1500 m and no cumulonimbus
Becoming
from 23 at 19 UTC to 23 at 22 UTC
Wind 5 kt from variable directions

TAF: LFMV 231400Z 2315/2415 35015KT CAVOK BECMG 2319/2322 VRB05KT

Weather observations and forecasts of more than 4000 airports (METAR and TAF reports).

The available stations are represented by yellow and red dots on the map.

Hover mouse over dot to see the name of the station.

Then click to see weather observations and forecasts.

To change the map : click on the green buttons with a black cross to zoom in, on the green button with a dash to zoom out, or on the green arrows for adjacent maps.


METAR-TAF: